createdAt,value
2018-11-25T00:00:21.172Z,12.97
2018-11-25T00:02:49.933Z,16.30
2018-11-25T00:05:18.986Z,21.17
2018-11-25T00:07:48.133Z,16.63
2018-11-25T00:10:16.988Z,16.97
2018-11-25T00:12:45.355Z,14.13
2018-11-25T00:15:13.748Z,16.77
2018-11-25T00:17:43.246Z,13.00
2018-11-25T00:20:13.546Z,13.47
2018-11-25T00:22:42.815Z,16.40
2018-11-25T00:25:13.525Z,16.00
2018-11-25T00:27:42.196Z,17.53
2018-11-25T00:30:13.889Z,16.83
2018-11-25T00:32:42.388Z,19.20
2018-11-25T00:35:12.897Z,17.20
2018-11-25T00:37:48.107Z,16.40
2018-11-25T00:40:13.943Z,15.97
2018-11-25T00:42:43.303Z,17.53
2018-11-25T00:45:16.548Z,18.67
2018-11-25T00:47:45.119Z,20.47
2018-11-25T00:50:14.055Z,16.17
2018-11-25T00:52:42.832Z,16.40
2018-11-25T00:55:14.890Z,18.83
2018-11-25T00:57:43.318Z,16.90
2018-11-25T01:00:16.459Z,19.07
2018-11-25T01:02:45.182Z,18.03
2018-11-25T01:05:13.458Z,19.20
2018-11-25T01:07:42.316Z,18.77
2018-11-25T01:10:15.453Z,18.17
2018-11-25T01:12:44.340Z,18.70
2018-11-25T01:15:16.322Z,16.50
2018-11-25T01:17:44.700Z,16.90
2018-11-25T01:20:16.193Z,19.23
2018-11-25T01:22:44.398Z,17.70
2018-11-25T01:25:12.747Z,17.83
2018-11-25T01:27:41.370Z,16.90
2018-11-25T01:30:13.882Z,17.17
2018-11-25T01:32:42.179Z,20.73
2018-11-25T01:35:11.970Z,19.33
2018-11-25T01:37:40.470Z,19.47
2018-11-25T01:40:14.221Z,17.73
2018-11-25T01:42:42.576Z,20.57
2018-11-25T01:45:15.380Z,22.10
2018-11-25T01:47:43.732Z,19.57
2018-11-25T01:50:21.935Z,22.40
2018-11-25T01:52:50.160Z,22.80
2018-11-25T01:55:18.995Z,20.80
2018-11-25T01:57:47.553Z,22.27
2018-11-25T02:00:18.539Z,22.67
2018-11-25T02:02:47.537Z,20.73
2018-11-25T02:05:15.964Z,21.40
2018-11-25T02:07:44.316Z,20.73
2018-11-25T02:10:18.598Z,20.37
2018-11-25T02:12:47.229Z,20.67
2018-11-25T02:15:16.602Z,18.97
2018-11-25T02:17:44.887Z,19.67
2018-11-25T02:20:20.173Z,18.93
2018-11-25T02:22:48.845Z,20.17
2018-11-25T02:25:17.165Z,21.47
2018-11-25T02:27:45.486Z,22.77
2018-11-25T02:30:16.215Z,20.67
2018-11-25T02:32:44.820Z,19.23
2018-11-25T02:35:14.626Z,20.50
2018-11-25T02:37:42.896Z,19.40
2018-11-25T02:40:12.900Z,20.77
2018-11-25T02:42:41.112Z,19.37
2018-11-25T02:45:12.917Z,22.40
2018-11-25T02:47:41.231Z,20.13
2018-11-25T02:50:25.716Z,21.70
2018-11-25T02:52:55.639Z,23.07
2018-11-25T02:55:25.184Z,22.63
2018-11-25T02:57:53.402Z,23.10
2018-11-25T03:00:21.614Z,24.57
2018-11-25T03:02:50.163Z,24.63
2018-11-25T03:05:18.748Z,28.67
2018-11-25T03:07:46.894Z,24.03
2018-11-25T03:10:15.072Z,23.83
2018-11-25T03:12:43.226Z,22.57
2018-11-25T03:15:14.047Z,26.53
2018-11-25T03:17:42.222Z,26.60
2018-11-25T03:20:15.498Z,25.33
2018-11-25T03:22:44.089Z,25.47
2018-11-25T03:25:20.075Z,24.83
2018-11-25T03:27:48.375Z,31.70
2018-11-25T03:30:19.772Z,25.97
2018-11-25T03:32:49.525Z,30.70
2018-11-25T03:35:17.817Z,29.97
2018-11-25T03:37:46.039Z,31.27
2018-11-25T03:40:16.880Z,28.47
2018-11-25T03:42:45.078Z,28.33
2018-11-25T03:45:15.164Z,23.93
2018-11-25T03:47:43.380Z,26.17
2018-11-25T03:50:13.237Z,25.80
2018-11-25T03:52:41.932Z,24.60
2018-11-25T03:55:12.340Z,22.70
2018-11-25T03:57:40.782Z,22.07
2018-11-25T04:00:11.882Z,20.63
2018-11-25T04:02:40.209Z,23.03
2018-11-25T04:05:10.323Z,20.67
2018-11-25T04:07:38.517Z,21.10
2018-11-25T04:10:09.850Z,22.63
2018-11-25T04:12:38.186Z,22.17
2018-11-25T04:15:10.310Z,21.30
2018-11-25T04:17:39.021Z,19.23
2018-11-25T04:20:11.562Z,19.00
2018-11-25T04:22:39.867Z,22.30
2018-11-25T04:25:11.100Z,22.83
2018-11-25T04:27:39.316Z,21.30
2018-11-25T04:30:17.585Z,27.40
2018-11-25T04:32:47.270Z,27.77
2018-11-25T04:35:15.572Z,24.57
2018-11-25T04:37:44.125Z,24.30
2018-11-25T04:40:14.468Z,25.23
2018-11-25T04:42:42.754Z,21.60
2018-11-25T04:45:15.626Z,23.93
2018-11-25T04:47:44.541Z,23.60
2018-11-25T04:50:20.020Z,20.23
2018-11-25T04:52:48.490Z,26.43
2018-11-25T04:55:16.950Z,27.60
2018-11-25T04:57:46.802Z,34.83
2018-11-25T05:00:15.285Z,34.33
2018-11-25T05:02:43.525Z,31.30
2018-11-25T05:05:13.374Z,27.70
2018-11-25T05:07:41.772Z,25.20
2018-11-25T05:10:16.674Z,25.87
2018-11-25T05:12:45.020Z,22.10
2018-11-25T05:15:17.640Z,27.00
2018-11-25T05:17:46.197Z,24.63
2018-11-25T05:20:15.431Z,26.53
2018-11-25T05:22:43.650Z,25.70
2018-11-25T05:25:17.278Z,24.10
2018-11-25T05:27:45.466Z,26.97
2018-11-25T05:30:18.119Z,27.93
2018-11-25T05:32:46.325Z,28.03
2018-11-25T05:35:18.080Z,27.43
2018-11-25T05:37:46.230Z,26.90
2018-11-25T05:40:16.443Z,28.33
2018-11-25T05:42:44.969Z,26.63
2018-11-25T05:45:19.306Z,26.83
2018-11-25T05:47:47.704Z,27.73
2018-11-25T05:50:17.199Z,29.83
2018-11-25T05:52:45.564Z,49.33
2018-11-25T05:55:14.177Z,42.47
2018-11-25T05:57:42.704Z,41.47
2018-11-25T06:00:14.145Z,33.23
2018-11-25T06:02:42.303Z,27.80
2018-11-25T06:05:10.700Z,30.27
2018-11-25T06:07:39.117Z,28.17
2018-11-25T06:10:09.750Z,34.67
2018-11-25T06:12:38.301Z,40.10
2018-11-25T06:15:10.494Z,33.43
2018-11-25T06:17:38.884Z,36.30
2018-11-25T06:20:11.075Z,39.23
2018-11-25T06:22:39.696Z,34.80
2018-11-25T06:25:10.423Z,35.07
2018-11-25T06:27:38.637Z,29.20
2018-11-25T06:30:10.927Z,32.87
2018-11-25T06:32:39.272Z,28.40
2018-11-25T06:35:09.502Z,31.90
2018-11-25T06:37:37.728Z,32.03
2018-11-25T06:40:10.080Z,35.03
2018-11-25T06:42:38.296Z,36.83
2018-11-25T06:45:26.521Z,38.83
2018-11-25T06:47:56.057Z,30.83
2018-11-25T06:50:24.300Z,36.47
2018-11-25T06:52:52.556Z,36.33
2018-11-25T06:55:20.960Z,28.80
2018-11-25T06:57:50.373Z,32.77
2018-11-25T07:00:25.831Z,36.47
2018-11-25T07:02:54.516Z,40.77
2018-11-25T07:05:22.876Z,31.03
2018-11-25T07:07:51.379Z,30.63
2018-11-25T07:10:21.990Z,32.67
2018-11-25T07:12:53.882Z,30.70
2018-11-25T07:15:22.253Z,33.53
2018-11-25T07:17:50.486Z,39.83
2018-11-25T07:20:19.445Z,34.03
2018-11-25T07:22:47.722Z,34.70
2018-11-25T07:25:19.630Z,43.13
2018-11-25T07:27:48.058Z,40.93
2018-11-25T07:30:22.261Z,38.90
2018-11-25T07:32:50.674Z,39.20
2018-11-25T07:35:19.723Z,41.50
2018-11-25T07:37:47.920Z,49.47
2018-11-25T07:40:20.462Z,41.33
2018-11-25T07:42:49.333Z,45.13
2018-11-25T07:45:30.020Z,37.10
2018-11-25T07:47:53.689Z,36.83
2018-11-25T07:50:22.214Z,34.10
2018-11-25T07:52:51.812Z,32.03
2018-11-25T07:55:24.103Z,36.53
2018-11-25T07:57:55.660Z,35.37
2018-11-25T08:00:27.989Z,32.33
2018-11-25T08:02:57.436Z,32.00
2018-11-25T08:05:28.441Z,36.73
2018-11-25T08:07:56.720Z,32.67
2018-11-25T08:10:25.151Z,35.87
2018-11-25T08:12:53.399Z,37.00
2018-11-25T08:15:21.646Z,31.90
2018-11-25T08:17:50.188Z,34.00
2018-11-25T08:20:20.831Z,28.77
2018-11-25T08:22:49.824Z,21.90
2018-11-25T08:25:19.430Z,27.50
2018-11-25T08:27:47.790Z,15.03
2018-11-25T08:30:20.904Z,18.40
2018-11-25T08:32:49.502Z,15.70
2018-11-25T08:35:18.622Z,16.40
2018-11-25T08:37:46.863Z,16.23
2018-11-25T08:40:22.675Z,17.40
2018-11-25T08:42:51.383Z,16.10
2018-11-25T08:45:19.769Z,15.63
2018-11-25T08:47:48.157Z,14.07
2018-11-25T08:51:20.991Z,14.60
2018-11-25T08:53:49.300Z,16.03
2018-11-25T08:56:17.581Z,16.13
2018-11-25T08:58:45.913Z,14.50
2018-11-25T09:01:14.288Z,16.60
2018-11-25T09:03:43.098Z,17.43
2018-11-25T09:06:11.421Z,17.40
2018-11-25T09:08:39.613Z,16.27
2018-11-25T09:11:07.867Z,14.93
2018-11-25T09:13:36.290Z,16.97
2018-11-25T09:16:04.740Z,15.07
2018-11-25T09:18:32.927Z,14.00
2018-11-25T09:21:01.130Z,14.53
2018-11-25T09:23:29.336Z,14.73
2018-11-25T09:25:58.343Z,14.93
2018-11-25T09:28:26.641Z,17.50
2018-11-25T09:30:55.157Z,15.27
2018-11-25T09:33:25.114Z,14.20
2018-11-25T09:35:53.361Z,16.43
2018-11-25T09:38:23.151Z,15.67
2018-11-25T09:40:51.413Z,14.83
2018-11-25T09:43:19.892Z,16.73
2018-11-25T09:45:48.840Z,15.13
2018-11-25T09:48:22.654Z,16.43
2018-11-25T09:50:58.495Z,16.43
2018-11-25T09:53:44.903Z,15.03
2018-11-25T09:56:17.757Z,16.13
2018-11-25T09:58:46.756Z,16.67
2018-11-25T10:01:15.431Z,15.33
2018-11-25T10:03:43.868Z,16.17
2018-11-25T10:06:12.936Z,15.63
2018-11-25T10:08:40.745Z,18.33
2018-11-25T10:11:09.508Z,15.37
2018-11-25T10:13:37.764Z,16.00
2018-11-25T10:16:06.426Z,15.93
2018-11-25T10:18:35.785Z,15.63
2018-11-25T10:21:04.423Z,17.97
2018-11-25T10:23:32.847Z,15.60
2018-11-25T10:26:01.117Z,14.33
2018-11-25T10:28:30.777Z,14.80
2018-11-25T10:30:59.396Z,30.00
2018-11-25T10:33:28.323Z,13.60
2018-11-25T10:35:56.915Z,14.50
2018-11-25T10:38:25.173Z,13.10
2018-11-25T10:40:55.587Z,13.33
2018-11-25T10:43:23.881Z,12.97
2018-11-25T10:46:00.275Z,14.10
2018-11-25T10:48:58.047Z,13.60
2018-11-25T10:51:26.333Z,12.70
2018-11-25T10:53:55.822Z,14.47
2018-11-25T10:56:24.239Z,15.63
2018-11-25T10:58:52.541Z,14.57
2018-11-25T11:01:26.415Z,15.70
2018-11-25T11:03:55.108Z,17.57
2018-11-25T11:06:30.552Z,16.00
2018-11-25T11:08:58.874Z,17.73
2018-11-25T11:11:28.407Z,16.90
2018-11-25T11:13:56.825Z,14.50
2018-11-25T11:16:25.629Z,16.03
2018-11-25T11:18:54.379Z,14.43
2018-11-25T11:21:23.554Z,16.03
2018-11-25T11:23:51.802Z,14.13
2018-11-25T11:26:25.315Z,14.67
2018-11-25T11:28:53.861Z,16.57
2018-11-25T11:31:24.122Z,16.33
2018-11-25T11:33:52.463Z,16.97
2018-11-25T11:36:21.003Z,15.53
2018-11-25T11:38:49.552Z,15.07
2018-11-25T11:41:37.777Z,16.13
2018-11-25T11:44:06.992Z,16.17
2018-11-25T11:46:36.513Z,15.73
2018-11-25T11:49:05.195Z,13.93
2018-11-25T11:51:33.659Z,17.23
2018-11-25T11:54:02.599Z,14.23
2018-11-25T11:56:31.351Z,18.27
2018-11-25T11:58:59.954Z,17.27
2018-11-25T12:01:28.284Z,16.10
2018-11-25T12:03:56.805Z,14.73
2018-11-25T12:06:25.813Z,13.67
2018-11-25T12:08:54.017Z,11.83
2018-11-25T12:11:22.246Z,14.77
2018-11-25T12:13:51.141Z,13.50
2018-11-25T12:16:19.813Z,14.27
2018-11-25T12:18:48.578Z,15.00
2018-11-25T12:21:17.290Z,12.50
2018-11-25T12:23:45.650Z,13.13
2018-11-25T12:26:14.051Z,13.23
2018-11-25T12:28:42.390Z,12.53
2018-11-25T12:31:10.757Z,11.80
2018-11-25T12:33:40.123Z,10.73
2018-11-25T12:36:08.546Z,11.60
2018-11-25T12:38:37.082Z,11.77
2018-11-25T12:41:05.655Z,11.70
2018-11-25T12:43:33.916Z,11.03
2018-11-25T12:46:02.203Z,11.70
2018-11-25T12:48:30.821Z,11.23
2018-11-25T12:50:59.171Z,11.10
2018-11-25T12:53:28.272Z,10.73
2018-11-25T12:55:57.041Z,11.37
2018-11-25T12:58:25.516Z,10.93
2018-11-25T13:00:53.985Z,10.27
2018-11-25T13:03:22.330Z,10.27
2018-11-25T13:05:50.792Z,11.00
2018-11-25T13:08:19.192Z,10.10
2018-11-25T13:10:47.418Z,9.77
2018-11-25T13:13:17.181Z,11.73
2018-11-25T13:15:45.469Z,10.30
2018-11-25T13:18:13.707Z,9.57
2018-11-25T13:20:42.032Z,9.73
2018-11-25T13:23:10.273Z,9.90
2018-11-25T13:25:39.595Z,11.10
2018-11-25T13:28:08.622Z,9.83
2018-11-25T13:30:44.387Z,10.10
2018-11-25T13:33:13.003Z,10.63
2018-11-25T13:35:41.595Z,10.07
2018-11-25T13:38:09.974Z,9.93
2018-11-25T13:40:38.325Z,7.73
2018-11-25T13:43:07.379Z,7.77
2018-11-25T13:45:35.776Z,6.30
2018-11-25T13:48:04.051Z,6.50
2018-11-25T13:50:32.327Z,8.43
2018-11-25T13:53:00.878Z,9.90
2018-11-25T13:55:29.804Z,11.40
2018-11-25T13:57:58.081Z,11.90
2018-11-25T14:00:39.919Z,12.93
2018-11-25T14:03:11.264Z,13.27
2018-11-25T14:05:40.135Z,14.10
2018-11-25T14:08:09.143Z,13.00
2018-11-25T14:10:37.917Z,14.90
2018-11-25T14:13:07.304Z,14.13
2018-11-25T14:15:36.200Z,11.60
2018-11-25T14:18:05.083Z,11.83
2018-11-25T14:20:33.654Z,17.43
2018-11-25T14:23:02.459Z,15.90
2018-11-25T14:25:30.822Z,10.33
2018-11-25T14:28:02.514Z,12.27
2018-11-25T14:30:32.089Z,21.17
2018-11-25T14:33:00.662Z,16.77
2018-11-25T14:35:30.822Z,12.67
2018-11-25T14:37:59.094Z,12.30
2018-11-25T14:40:27.352Z,11.00
2018-11-25T14:42:56.085Z,11.57
2018-11-25T14:45:24.466Z,11.80
2018-11-25T14:47:52.893Z,10.50
2018-11-25T14:50:21.361Z,12.33
2018-11-25T14:52:51.639Z,10.93
2018-11-25T14:55:20.660Z,11.00
2018-11-25T14:57:49.079Z,10.83
2018-11-25T15:00:20.196Z,9.93
2018-11-25T15:02:58.422Z,12.93
2018-11-25T15:05:35.119Z,14.90
2018-11-25T15:08:03.337Z,11.83
2018-11-25T15:10:31.778Z,11.07
2018-11-25T15:13:00.116Z,11.23
2018-11-25T15:15:28.414Z,11.77
2018-11-25T15:17:56.683Z,8.63
2018-11-25T15:20:25.593Z,8.17
2018-11-25T15:22:57.686Z,9.23
2018-11-25T15:25:30.486Z,9.63
2018-11-25T15:27:58.710Z,9.40
2018-11-25T15:30:27.167Z,8.03
2018-11-25T15:32:55.401Z,9.77
2018-11-25T15:35:23.650Z,10.63
2018-11-25T15:37:53.355Z,9.80
2018-11-25T15:40:30.830Z,12.27
2018-11-25T15:42:59.478Z,13.03
2018-11-25T15:45:27.800Z,12.97
2018-11-25T15:48:08.267Z,14.87
2018-11-25T15:50:36.769Z,16.13
2018-11-25T15:53:06.748Z,12.97
2018-11-25T15:55:35.152Z,14.07
2018-11-25T15:58:03.501Z,14.57
2018-11-25T16:00:31.887Z,14.47
2018-11-25T16:03:00.148Z,17.03
2018-11-25T16:05:35.592Z,15.87
2018-11-25T16:08:04.951Z,17.67
2018-11-25T16:10:33.285Z,18.37
2018-11-25T16:13:01.639Z,19.10
2018-11-25T16:15:29.916Z,18.87
2018-11-25T16:17:58.205Z,17.37
2018-11-25T16:20:29.601Z,20.53
2018-11-25T16:23:01.048Z,19.33
2018-11-25T16:25:37.375Z,22.53
2018-11-25T16:28:45.866Z,18.57
2018-11-25T16:31:14.077Z,19.47
2018-11-25T16:33:42.591Z,18.30
2018-11-25T16:36:11.229Z,20.27
2018-11-25T16:38:39.960Z,20.37
2018-11-25T16:41:08.196Z,21.63
2018-11-25T16:43:36.845Z,21.27
2018-11-25T16:46:06.555Z,21.70
2018-11-25T16:48:35.163Z,20.77
2018-11-25T16:51:03.736Z,20.90
2018-11-25T16:53:31.953Z,19.83
2018-11-25T16:56:00.547Z,22.87
2018-11-25T16:58:28.727Z,20.33
2018-11-25T17:00:56.897Z,20.43
2018-11-25T17:03:26.022Z,20.47
2018-11-25T17:05:55.191Z,21.17
2018-11-25T17:08:33.695Z,18.27
2018-11-25T17:11:02.067Z,20.33
2018-11-25T17:13:30.597Z,22.77
2018-11-25T17:15:59.007Z,19.40
2018-11-25T17:18:28.009Z,24.93
2018-11-25T17:20:56.228Z,21.83
2018-11-25T17:23:24.539Z,35.00
2018-11-25T17:25:52.973Z,23.60
2018-11-25T17:28:21.339Z,21.90
2018-11-25T17:30:49.950Z,20.43
2018-11-25T17:33:18.766Z,26.77
2018-11-25T17:35:47.235Z,27.27
2018-11-25T17:38:15.714Z,26.80
2018-11-25T17:40:44.473Z,23.33
2018-11-25T17:43:15.854Z,31.03
2018-11-25T17:45:44.296Z,35.57
2018-11-25T17:48:12.840Z,50.90
2018-11-25T17:50:41.300Z,28.80
2018-11-25T17:53:09.977Z,20.50
2018-11-25T17:55:39.756Z,20.30
2018-11-25T17:58:08.202Z,20.90
2018-11-25T18:00:59.955Z,21.47
2018-11-25T18:03:30.546Z,19.83
2018-11-25T18:05:59.064Z,19.00
2018-11-25T18:08:27.535Z,22.37
2018-11-25T18:10:56.033Z,19.57
2018-11-25T18:13:27.520Z,19.03
2018-11-25T18:15:58.103Z,19.90
2018-11-25T18:18:40.189Z,19.27
2018-11-25T18:21:11.448Z,18.57
2018-11-25T18:23:40.089Z,21.73
2018-11-25T18:26:15.154Z,20.50
2018-11-25T18:28:43.704Z,19.67
2018-11-25T18:31:13.020Z,20.57
2018-11-25T18:33:41.487Z,21.13
2018-11-25T18:36:13.540Z,21.90
2018-11-25T18:38:42.361Z,19.10
2018-11-25T18:41:11.268Z,19.90
2018-11-25T18:43:39.545Z,20.03
2018-11-25T18:46:08.002Z,21.17
2018-11-25T18:48:39.890Z,18.87
2018-11-25T18:51:08.984Z,20.90
2018-11-25T18:53:37.247Z,19.67
2018-11-25T18:56:06.016Z,21.27
2018-11-25T18:58:34.344Z,21.50
2018-11-25T19:01:45.896Z,23.07
2018-11-25T19:04:14.370Z,22.67
2018-11-25T19:06:43.143Z,21.13
2018-11-25T19:09:18.453Z,20.70
2018-11-25T19:11:46.960Z,20.87
2018-11-25T19:14:15.346Z,19.80
2018-11-25T19:16:44.286Z,22.57
2018-11-25T19:19:12.982Z,20.47
2018-11-25T19:21:41.573Z,19.70
2018-11-25T19:24:10.303Z,18.03
2018-11-25T19:26:38.501Z,18.43
2018-11-25T19:29:06.826Z,20.27
2018-11-25T19:31:35.233Z,20.83
2018-11-25T19:34:03.506Z,21.70
2018-11-25T19:36:31.842Z,20.57
2018-11-25T19:38:59.982Z,21.13
2018-11-25T19:41:28.819Z,22.40
2018-11-25T19:43:59.105Z,21.93
2018-11-25T19:46:27.436Z,20.70
2018-11-25T19:48:56.162Z,20.50
2018-11-25T19:51:24.475Z,19.67
2018-11-25T19:53:53.034Z,21.60
2018-11-25T19:56:23.081Z,21.60
2018-11-25T19:58:52.034Z,23.37
2018-11-25T20:01:20.800Z,20.00
2018-11-25T20:03:49.267Z,18.53
2018-11-25T20:06:17.539Z,19.87
2018-11-25T20:08:46.227Z,16.60
2018-11-25T20:11:14.623Z,22.60
2018-11-25T20:13:42.960Z,19.73
2018-11-25T20:16:17.933Z,20.37
2018-11-25T20:18:46.860Z,20.00
2018-11-25T20:21:22.126Z,22.33
2018-11-25T20:23:54.133Z,20.77
2018-11-25T20:26:22.510Z,22.60
2018-11-25T20:28:50.816Z,21.83
2018-11-25T20:31:20.350Z,23.27
2018-11-25T20:33:52.234Z,22.73
2018-11-25T20:36:18.518Z,21.77
2018-11-25T20:38:52.574Z,23.50
2018-11-25T20:41:21.202Z,26.63
2018-11-25T20:43:49.549Z,22.50
2018-11-25T20:46:23.595Z,21.53
2018-11-25T20:48:52.556Z,17.87
2018-11-25T20:51:25.550Z,18.57
2018-11-25T20:53:57.831Z,18.10
2018-11-25T20:56:26.580Z,17.43
2018-11-25T20:58:55.095Z,17.67
2018-11-25T21:01:26.708Z,19.70
2018-11-25T21:03:55.050Z,17.73
2018-11-25T21:06:30.685Z,19.37
2018-11-25T21:08:59.523Z,17.43
2018-11-25T21:11:27.737Z,18.23
2018-11-25T21:13:56.106Z,20.97
2018-11-25T21:16:24.349Z,20.37
2018-11-25T21:18:52.602Z,21.73
2018-11-25T21:21:21.584Z,20.27
2018-11-25T21:23:51.797Z,19.90
2018-11-25T21:26:20.164Z,21.90
2018-11-25T21:28:48.459Z,20.87
2018-11-25T21:31:16.864Z,19.50
2018-11-25T21:33:51.208Z,21.30
2018-11-25T21:36:19.974Z,19.53
2018-11-25T21:38:48.357Z,20.40
2018-11-25T21:43:39.610Z,20.53
2018-11-25T21:46:07.836Z,19.33
2018-11-25T21:48:36.230Z,19.30
2018-11-25T21:51:05.010Z,20.83
2018-11-25T21:53:33.989Z,19.40
2018-11-25T21:56:02.631Z,20.17
2018-11-25T21:58:31.076Z,20.53
2018-11-25T22:01:02.492Z,20.43
2018-11-25T22:03:30.997Z,19.93
2018-11-25T22:05:59.158Z,19.97
2018-11-25T22:08:28.036Z,20.03
2018-11-25T22:10:59.055Z,20.57
2018-11-25T22:13:29.223Z,19.87
2018-11-25T22:15:57.812Z,17.23
2018-11-25T22:18:27.990Z,19.57
2018-11-25T22:20:56.858Z,18.40
2018-11-25T22:23:25.240Z,19.83
2018-11-25T22:25:53.960Z,20.17
2018-11-25T22:28:23.186Z,18.90
2018-11-25T22:30:52.022Z,19.07
2018-11-25T22:33:20.344Z,17.47
2018-11-25T22:35:48.677Z,18.70
2018-11-25T22:38:17.096Z,17.73
2018-11-25T22:40:47.317Z,17.07
2018-11-25T22:43:15.657Z,19.57
2018-11-25T22:45:44.067Z,19.27
2018-11-25T22:48:12.348Z,17.13
2018-11-25T22:50:40.858Z,19.77
2018-11-25T22:53:09.137Z,20.10
2018-11-25T22:55:37.470Z,17.27
2018-11-25T22:58:06.801Z,20.23
2018-11-25T23:00:36.790Z,18.70
2018-11-25T23:03:06.042Z,21.23
2018-11-25T23:05:51.731Z,24.33
2018-11-25T23:08:20.214Z,19.77
2018-11-25T23:10:48.743Z,21.07
2018-11-25T23:13:17.410Z,22.60
2018-11-25T23:15:45.783Z,21.13
2018-11-25T23:18:14.199Z,22.73
2018-11-25T23:20:42.568Z,22.90
2018-11-25T23:23:11.232Z,24.03
2018-11-25T23:25:40.125Z,21.53
2018-11-25T23:28:09.567Z,23.70
2018-11-25T23:30:38.548Z,23.37
2018-11-25T23:33:06.960Z,24.97
2018-11-25T23:35:35.377Z,23.63
2018-11-25T23:38:03.602Z,28.37
2018-11-25T23:40:31.991Z,23.03
2018-11-25T23:43:00.799Z,23.97
2018-11-25T23:45:36.813Z,23.23
2018-11-25T23:48:07.592Z,25.50
2018-11-25T23:50:36.186Z,22.77
2018-11-25T23:53:05.640Z,25.30
2018-11-25T23:55:34.966Z,25.30
2018-11-25T23:58:04.386Z,23.60
